createdAt,value
2018-12-25T00:01:22.650Z,4.80
2018-12-25T00:03:51.054Z,5.20
2018-12-25T00:06:19.568Z,5.37
2018-12-25T00:08:47.994Z,5.20
2018-12-25T00:11:16.419Z,5.43
2018-12-25T00:13:44.842Z,5.30
2018-12-25T00:16:13.255Z,5.20
2018-12-25T00:18:41.688Z,5.43
2018-12-25T00:21:10.208Z,4.73
2018-12-25T00:23:38.616Z,5.20
2018-12-25T00:26:07.067Z,5.70
2018-12-25T00:28:35.522Z,5.40
2018-12-25T00:31:03.934Z,6.20
2018-12-25T00:33:33.372Z,4.90
2018-12-25T00:36:02.799Z,5.53
2018-12-25T00:38:32.136Z,4.57
2018-12-25T00:41:05.399Z,4.83
2018-12-25T00:43:33.831Z,5.17
2018-12-25T00:46:02.381Z,4.93
2018-12-25T00:48:30.811Z,5.63
2018-12-25T00:50:59.219Z,5.07
2018-12-25T00:53:27.661Z,5.10
2018-12-25T00:55:56.069Z,4.93
2018-12-25T00:58:24.508Z,4.83
2018-12-25T01:00:53.020Z,4.87
2018-12-25T01:03:21.445Z,4.63
2018-12-25T01:05:49.874Z,4.53
2018-12-25T01:08:18.343Z,4.73
2018-12-25T01:10:46.847Z,4.23
2018-12-25T01:13:15.280Z,3.90
2018-12-25T01:15:44.448Z,4.23
2018-12-25T01:18:12.878Z,3.67
2018-12-25T01:20:41.328Z,4.77
2018-12-25T01:23:09.737Z,3.87
2018-12-25T01:25:38.191Z,4.20
2018-12-25T01:28:06.712Z,4.10
2018-12-25T01:30:35.114Z,3.70
2018-12-25T01:33:03.538Z,4.37
2018-12-25T01:35:31.957Z,4.00
2018-12-25T01:38:00.368Z,4.20
2018-12-25T01:40:28.794Z,3.40
2018-12-25T01:42:57.211Z,3.87
2018-12-25T01:45:25.629Z,3.80
2018-12-25T01:47:54.096Z,4.10
2018-12-25T01:50:22.510Z,3.60
2018-12-25T01:52:51.089Z,4.20
2018-12-25T01:55:19.506Z,3.93
2018-12-25T01:57:47.917Z,3.67
2018-12-25T02:00:16.812Z,3.80
2018-12-25T02:02:45.231Z,4.03
2018-12-25T02:05:13.733Z,3.20
2018-12-25T02:07:42.183Z,4.07
2018-12-25T02:10:10.742Z,3.90
2018-12-25T02:12:39.146Z,3.53
2018-12-25T02:15:07.675Z,3.60
2018-12-25T02:17:36.151Z,3.80
2018-12-25T02:20:05.834Z,3.80
2018-12-25T02:22:34.292Z,3.80
2018-12-25T02:25:03.079Z,3.50
2018-12-25T02:27:31.592Z,3.70
2018-12-25T02:30:00.097Z,3.40
2018-12-25T02:32:29.003Z,3.37
2018-12-25T02:34:58.705Z,3.93
2018-12-25T02:37:27.384Z,4.03
2018-12-25T02:39:55.819Z,3.90
2018-12-25T02:42:24.735Z,3.60
2018-12-25T02:44:53.195Z,4.13
2018-12-25T02:47:21.641Z,3.70
2018-12-25T02:49:50.716Z,3.90
2018-12-25T02:52:19.426Z,3.63
2018-12-25T02:54:47.832Z,4.00
2018-12-25T02:57:16.254Z,3.77
2018-12-25T02:59:44.676Z,3.37
2018-12-25T03:02:13.109Z,3.77
2018-12-25T03:04:41.528Z,3.43
2018-12-25T03:07:09.971Z,4.33
2018-12-25T03:09:38.393Z,3.80
2018-12-25T03:12:06.828Z,3.80
2018-12-25T03:14:35.248Z,3.67
2018-12-25T03:17:03.690Z,4.20
2018-12-25T03:19:32.111Z,3.93
2018-12-25T03:22:00.529Z,4.03
2018-12-25T03:24:28.994Z,4.13
2018-12-25T03:26:57.415Z,3.93
2018-12-25T03:29:25.831Z,4.43
2018-12-25T03:31:54.353Z,4.00
2018-12-25T03:34:22.749Z,3.80
2018-12-25T03:36:51.158Z,4.13
2018-12-25T03:39:19.612Z,4.47
2018-12-25T03:41:48.075Z,4.30
2018-12-25T03:44:16.509Z,4.93
2018-12-25T03:46:44.945Z,3.77
2018-12-25T03:49:13.404Z,4.17
2018-12-25T03:51:41.902Z,4.17
2018-12-25T03:54:10.313Z,4.07
2018-12-25T03:56:39.016Z,3.50
2018-12-25T03:59:07.459Z,3.80
2018-12-25T04:01:35.883Z,4.00
2018-12-25T04:04:04.334Z,3.47
2018-12-25T04:06:32.779Z,3.63
2018-12-25T04:09:01.210Z,4.40
2018-12-25T04:11:29.632Z,3.80
2018-12-25T04:13:58.571Z,3.67
2018-12-25T04:16:26.981Z,4.10
2018-12-25T04:18:55.436Z,4.10
2018-12-25T04:21:23.870Z,3.80
2018-12-25T04:23:52.302Z,4.00
2018-12-25T04:26:20.721Z,4.10
2018-12-25T04:28:49.181Z,3.60
2018-12-25T04:31:17.622Z,4.07
2018-12-25T04:33:46.040Z,4.53
2018-12-25T04:36:14.473Z,3.67
2018-12-25T04:38:43.026Z,3.73
2018-12-25T04:41:11.382Z,4.40
2018-12-25T04:43:40.359Z,4.30
2018-12-25T04:46:08.779Z,3.50
2018-12-25T04:48:37.219Z,3.90
2018-12-25T04:51:05.646Z,3.50
2018-12-25T04:53:34.060Z,3.43
2018-12-25T04:56:02.499Z,3.87
2018-12-25T04:58:30.955Z,3.20
2018-12-25T05:00:59.471Z,3.40
2018-12-25T05:03:27.901Z,3.50
2018-12-25T05:05:56.318Z,3.50
2018-12-25T05:08:24.781Z,3.50
2018-12-25T05:10:53.211Z,3.70
2018-12-25T05:13:21.700Z,3.40
2018-12-25T05:15:50.133Z,3.43
2018-12-25T05:18:18.605Z,3.70
2018-12-25T05:20:47.031Z,3.17
2018-12-25T05:23:15.493Z,3.23
2018-12-25T05:25:43.921Z,3.30
2018-12-25T05:28:12.330Z,2.93
2018-12-25T05:30:40.783Z,3.30
2018-12-25T05:33:09.203Z,3.13
2018-12-25T05:35:37.628Z,3.40
2018-12-25T05:38:06.075Z,3.10
2018-12-25T05:40:34.480Z,3.03
2018-12-25T05:43:02.973Z,3.47
2018-12-25T05:45:31.430Z,3.37
2018-12-25T05:47:59.834Z,3.43
2018-12-25T05:50:28.241Z,3.70
2018-12-25T05:52:56.786Z,3.77
2018-12-25T05:55:25.204Z,3.43
2018-12-25T05:57:53.652Z,3.33
2018-12-25T06:00:22.148Z,3.30
2018-12-25T06:02:50.555Z,3.40
2018-12-25T06:05:18.993Z,3.70
2018-12-25T06:07:47.439Z,3.53
2018-12-25T06:10:15.864Z,3.20
2018-12-25T06:12:44.348Z,3.30
2018-12-25T06:15:12.784Z,3.53
2018-12-25T06:17:41.183Z,3.60
2018-12-25T06:20:11.114Z,3.17
2018-12-25T06:22:39.531Z,3.03
2018-12-25T06:25:07.964Z,3.73
2018-12-25T06:27:36.479Z,3.70
2018-12-25T06:30:07.152Z,4.00
2018-12-25T06:32:35.561Z,3.80
2018-12-25T06:35:04.101Z,3.57
2018-12-25T06:37:32.513Z,4.07
2018-12-25T06:40:02.690Z,4.43
2018-12-25T06:42:31.095Z,4.40
2018-12-25T06:44:59.505Z,3.67
2018-12-25T06:47:30.193Z,3.90
2018-12-25T06:49:58.603Z,3.97
2018-12-25T06:52:27.095Z,3.90
2018-12-25T06:54:55.937Z,4.30
2018-12-25T06:57:28.139Z,3.50
2018-12-25T06:59:56.566Z,4.10
2018-12-25T07:02:24.999Z,3.97
2018-12-25T07:04:55.119Z,3.93
2018-12-25T07:07:23.552Z,4.70
2018-12-25T07:09:52.037Z,4.17
2018-12-25T07:12:20.474Z,4.30
2018-12-25T07:14:49.150Z,4.57
2018-12-25T07:17:17.592Z,3.80
2018-12-25T07:19:46.187Z,4.83
2018-12-25T07:22:14.588Z,4.33
2018-12-25T07:24:43.106Z,4.63
2018-12-25T07:27:11.539Z,4.33
2018-12-25T07:29:39.960Z,4.10
2018-12-25T07:32:08.404Z,4.03
2018-12-25T07:34:38.845Z,4.90
2018-12-25T07:37:07.188Z,4.20
2018-12-25T07:39:35.818Z,4.63
2018-12-25T07:42:04.170Z,4.83
2018-12-25T07:44:32.577Z,4.63
2018-12-25T07:47:01.041Z,4.63
2018-12-25T07:49:29.438Z,5.03
2018-12-25T07:51:57.872Z,4.47
2018-12-25T07:54:26.309Z,4.90
2018-12-25T07:56:54.722Z,4.63
2018-12-25T07:59:23.144Z,4.70
2018-12-25T08:01:51.586Z,5.00
2018-12-25T08:04:20.052Z,5.20
2018-12-25T08:06:48.488Z,4.83
2018-12-25T08:09:16.904Z,4.30
2018-12-25T08:11:45.322Z,4.93
2018-12-25T08:14:13.763Z,5.20
2018-12-25T08:16:42.241Z,5.23
2018-12-25T08:19:10.662Z,4.90
2018-12-25T08:21:39.533Z,5.57
2018-12-25T08:24:07.966Z,4.43
2018-12-25T08:26:36.781Z,5.30
2018-12-25T08:29:05.180Z,5.07
2018-12-25T08:31:33.731Z,4.77
2018-12-25T08:34:02.155Z,4.90
2018-12-25T08:36:30.568Z,5.00
2018-12-25T08:38:59.006Z,5.40
2018-12-25T08:41:28.309Z,4.40
2018-12-25T08:43:57.804Z,4.50
2018-12-25T08:46:28.917Z,4.50
2018-12-25T08:48:57.406Z,4.50
2018-12-25T08:51:25.881Z,4.27
2018-12-25T08:53:54.372Z,4.13
2018-12-25T08:56:22.824Z,4.03
2018-12-25T08:58:51.241Z,4.00
2018-12-25T09:01:19.692Z,3.57
2018-12-25T09:03:48.107Z,3.83
2018-12-25T09:06:16.617Z,4.50
2018-12-25T09:08:45.128Z,4.50
2018-12-25T09:11:13.566Z,3.77
2018-12-25T09:13:41.995Z,3.90
2018-12-25T09:16:10.528Z,4.40
2018-12-25T09:18:38.978Z,4.13
2018-12-25T09:21:07.401Z,4.20
2018-12-25T09:23:35.820Z,3.73
2018-12-25T09:26:04.330Z,3.63
2018-12-25T09:28:32.781Z,4.10
2018-12-25T09:31:01.204Z,3.93
2018-12-25T09:33:29.622Z,3.70
2018-12-25T09:35:58.081Z,3.67
2018-12-25T09:38:26.582Z,4.10
2018-12-25T09:40:56.288Z,4.23
2018-12-25T09:43:24.879Z,3.93
2018-12-25T09:45:56.721Z,4.03
2018-12-25T09:48:25.160Z,4.07
2018-12-25T09:50:53.697Z,4.20
2018-12-25T09:53:22.140Z,4.20
2018-12-25T09:55:50.604Z,4.10
2018-12-25T09:58:19.084Z,4.03
2018-12-25T10:00:47.629Z,3.70
2018-12-25T10:03:16.046Z,4.17
2018-12-25T10:05:44.501Z,4.07
2018-12-25T10:08:13.348Z,3.70
2018-12-25T10:10:41.704Z,3.87
2018-12-25T10:13:10.147Z,3.30
2018-12-25T10:15:38.640Z,4.07
2018-12-25T10:18:07.069Z,3.27
2018-12-25T10:20:36.622Z,3.70
2018-12-25T10:23:05.129Z,3.87
2018-12-25T10:25:33.561Z,3.30
2018-12-25T10:28:03.232Z,3.67
2018-12-25T10:30:31.698Z,4.30
2018-12-25T10:33:00.651Z,3.43
2018-12-25T10:35:30.076Z,3.20
2018-12-25T10:37:58.520Z,3.40
2018-12-25T10:40:26.930Z,3.37
2018-12-25T10:42:55.403Z,3.80
2018-12-25T10:45:23.827Z,3.60
2018-12-25T10:47:52.242Z,3.20
2018-12-25T10:50:20.843Z,3.40
2018-12-25T10:52:49.201Z,3.60
2018-12-25T10:55:17.907Z,3.37
2018-12-25T10:57:46.368Z,3.20
2018-12-25T11:00:14.916Z,3.30
2018-12-25T11:02:43.319Z,3.10
2018-12-25T11:05:11.966Z,3.50
2018-12-25T11:07:40.383Z,3.60
2018-12-25T11:10:09.270Z,2.93
2018-12-25T11:12:37.782Z,3.70
2018-12-25T11:15:07.218Z,3.00
2018-12-25T11:17:35.609Z,3.20
2018-12-25T11:20:11.352Z,2.77
2018-12-25T11:22:35.306Z,3.10
2018-12-25T11:25:03.801Z,2.70
2018-12-25T11:27:32.374Z,3.23
2018-12-25T11:30:01.032Z,3.03
2018-12-25T11:32:29.450Z,3.03
2018-12-25T11:34:57.953Z,3.20
2018-12-25T11:37:26.363Z,2.93
2018-12-25T11:39:54.781Z,3.30
2018-12-25T11:42:23.533Z,2.93
2018-12-25T11:44:51.948Z,2.93
2018-12-25T11:47:20.373Z,2.97
2018-12-25T11:49:48.792Z,2.97
2018-12-25T11:52:17.354Z,3.07
2018-12-25T11:54:45.810Z,2.93
2018-12-25T11:57:14.328Z,3.33
2018-12-25T11:59:42.820Z,3.03
2018-12-25T12:02:17.031Z,3.00
2018-12-25T12:04:41.420Z,3.20
2018-12-25T12:07:09.911Z,3.40
2018-12-25T12:09:38.335Z,2.80
2018-12-25T12:12:06.757Z,3.10
2018-12-25T12:14:35.164Z,2.97
2018-12-25T12:17:03.576Z,3.27
2018-12-25T12:19:32.022Z,3.17
2018-12-25T12:22:00.465Z,3.20
2018-12-25T12:24:28.878Z,3.07
2018-12-25T12:26:57.419Z,3.10
2018-12-25T12:29:25.820Z,3.00
2018-12-25T12:31:54.234Z,3.03
2018-12-25T12:34:22.679Z,3.20
2018-12-25T12:36:51.097Z,2.80
2018-12-25T12:39:19.598Z,3.20
2018-12-25T12:41:48.055Z,2.50
2018-12-25T12:44:16.591Z,2.70
2018-12-25T12:46:44.984Z,3.03
2018-12-25T12:49:13.380Z,2.53
2018-12-25T12:51:41.831Z,2.70
2018-12-25T12:54:10.256Z,2.50
2018-12-25T12:56:38.659Z,2.87
2018-12-25T12:59:07.701Z,2.60
2018-12-25T13:01:36.126Z,1.97
2018-12-25T13:04:04.530Z,2.20
2018-12-25T13:06:33.558Z,2.23
2018-12-25T13:09:04.431Z,2.43
2018-12-25T13:11:32.934Z,2.10
2018-12-25T13:14:01.376Z,2.53
2018-12-25T13:16:29.794Z,2.50
2018-12-25T13:18:58.257Z,2.47
2018-12-25T13:21:26.709Z,2.40
2018-12-25T13:23:55.132Z,2.03
2018-12-25T13:26:23.590Z,2.13
2018-12-25T13:28:52.017Z,2.30
2018-12-25T13:31:20.427Z,2.23
2018-12-25T13:33:48.944Z,2.33
2018-12-25T13:36:17.370Z,2.50
2018-12-25T13:38:46.841Z,2.23
2018-12-25T13:41:15.304Z,1.90
2018-12-25T13:43:43.798Z,2.13
2018-12-25T13:46:12.269Z,2.27
2018-12-25T13:48:40.751Z,2.40
2018-12-25T13:51:10.149Z,2.57
2018-12-25T13:53:45.267Z,2.37
2018-12-25T13:56:13.726Z,2.27
2018-12-25T13:58:42.125Z,2.53
2018-12-25T14:01:10.640Z,2.40
2018-12-25T14:03:39.085Z,2.43
2018-12-25T14:06:07.491Z,1.90
2018-12-25T14:08:35.975Z,2.37
2018-12-25T14:11:04.406Z,2.40
2018-12-25T14:13:32.806Z,2.87
2018-12-25T14:16:01.250Z,2.40
2018-12-25T14:18:29.664Z,2.03
2018-12-25T14:20:58.093Z,2.20
2018-12-25T14:23:26.519Z,2.23
2018-12-25T14:25:54.918Z,2.00
2018-12-25T14:28:23.358Z,2.20
2018-12-25T14:30:51.779Z,2.07
2018-12-25T14:33:20.370Z,2.17
2018-12-25T14:35:48.811Z,2.00
2018-12-25T14:38:17.282Z,2.40
2018-12-25T14:40:45.677Z,2.03
2018-12-25T14:43:14.147Z,2.10
2018-12-25T14:45:42.558Z,2.50
2018-12-25T14:48:10.989Z,1.90
2018-12-25T14:50:39.457Z,2.13
2018-12-25T14:53:07.863Z,2.07
2018-12-25T14:55:36.291Z,2.03
2018-12-25T14:58:04.723Z,1.90
2018-12-25T15:00:33.333Z,2.30
2018-12-25T15:03:01.736Z,2.10
2018-12-25T15:05:30.228Z,1.90
2018-12-25T15:07:58.971Z,2.10
2018-12-25T15:10:27.398Z,2.03
2018-12-25T15:12:56.478Z,2.10
2018-12-25T15:15:24.888Z,2.20
2018-12-25T15:17:53.352Z,2.00
2018-12-25T15:20:21.757Z,2.20
2018-12-25T15:22:50.210Z,2.00
2018-12-25T15:25:18.611Z,2.17
2018-12-25T15:27:47.026Z,2.07
2018-12-25T15:30:15.471Z,2.53
2018-12-25T15:32:43.877Z,2.47
2018-12-25T15:35:12.384Z,2.20
2018-12-25T15:37:40.801Z,2.40
2018-12-25T15:40:09.592Z,2.30
2018-12-25T15:42:38.031Z,2.13
2018-12-25T15:45:07.984Z,2.60
2018-12-25T15:47:36.383Z,2.40
2018-12-25T15:50:07.359Z,2.43
2018-12-25T15:52:35.777Z,2.30
2018-12-25T15:55:04.671Z,2.60
2018-12-25T15:57:33.113Z,2.87
2018-12-25T16:00:01.613Z,2.57
2018-12-25T16:02:30.033Z,2.40
2018-12-25T16:04:58.443Z,2.83
2018-12-25T16:07:26.883Z,3.77
2018-12-25T16:09:55.304Z,2.90
2018-12-25T16:12:23.778Z,2.83
2018-12-25T16:14:52.284Z,2.90
2018-12-25T16:17:20.688Z,2.70
2018-12-25T16:19:49.116Z,2.80
2018-12-25T16:22:17.607Z,2.53
2018-12-25T16:24:46.041Z,2.50
2018-12-25T16:27:14.535Z,2.60
2018-12-25T16:29:42.932Z,2.40
2018-12-25T16:32:12.699Z,2.47
2018-12-25T16:34:41.382Z,2.30
2018-12-25T16:37:09.819Z,2.67
2018-12-25T16:39:38.233Z,3.00
2018-12-25T16:42:06.799Z,2.93
2018-12-25T16:44:35.244Z,3.17
2018-12-25T16:47:03.657Z,2.50
2018-12-25T16:49:32.064Z,2.60
2018-12-25T16:52:00.520Z,2.50
2018-12-25T16:54:28.991Z,2.70
2018-12-25T16:56:57.433Z,2.60
2018-12-25T16:59:25.891Z,2.80
2018-12-25T17:01:54.405Z,2.63
2018-12-25T17:04:22.851Z,2.33
2018-12-25T17:06:51.305Z,2.87
2018-12-25T17:09:19.747Z,2.97
2018-12-25T17:11:48.178Z,2.80
2018-12-25T17:14:16.621Z,2.90
2018-12-25T17:16:45.077Z,2.97
2018-12-25T17:19:13.503Z,2.87
2018-12-25T17:21:41.931Z,2.77
2018-12-25T17:24:10.372Z,3.23
2018-12-25T17:26:38.778Z,2.47
2018-12-25T17:29:07.258Z,3.17
2018-12-25T17:31:35.699Z,3.03
2018-12-25T17:34:04.162Z,2.97
2018-12-25T17:36:32.604Z,3.30
2018-12-25T17:39:01.057Z,2.87
2018-12-25T17:41:29.438Z,3.20
2018-12-25T17:43:57.865Z,2.70
2018-12-25T17:46:26.283Z,2.73
2018-12-25T17:48:54.794Z,2.70
2018-12-25T17:51:23.537Z,3.00
2018-12-25T17:53:51.929Z,3.13
2018-12-25T17:56:20.404Z,2.60
2018-12-25T17:58:48.825Z,3.20
2018-12-25T18:01:17.235Z,3.70
2018-12-25T18:03:45.683Z,3.03
2018-12-25T18:06:14.119Z,2.90
2018-12-25T18:08:42.556Z,2.70
2018-12-25T18:11:11.061Z,3.10
2018-12-25T18:13:39.461Z,2.93
2018-12-25T18:16:08.030Z,3.10
2018-12-25T18:18:36.485Z,3.00
2018-12-25T18:21:04.927Z,3.57
2018-12-25T18:23:33.454Z,3.07
2018-12-25T18:26:02.173Z,3.70
2018-12-25T18:28:30.586Z,3.20
2018-12-25T18:30:59.152Z,3.70
2018-12-25T18:33:32.225Z,3.23
2018-12-25T18:36:00.655Z,3.23
2018-12-25T18:38:29.291Z,3.83
2018-12-25T18:40:57.747Z,3.93
2018-12-25T18:43:26.460Z,4.23
2018-12-25T18:45:54.876Z,4.37
2018-12-25T18:48:23.293Z,3.80
2018-12-25T18:50:51.798Z,3.93
2018-12-25T18:53:20.316Z,4.97
2018-12-25T18:55:48.741Z,4.80
2018-12-25T18:58:17.176Z,5.47
2018-12-25T19:00:45.593Z,5.43
2018-12-25T19:03:14.076Z,5.13
2018-12-25T19:05:42.518Z,5.30
2018-12-25T19:08:10.953Z,4.70
2018-12-25T19:10:39.383Z,5.20
2018-12-25T19:13:07.861Z,4.97
2018-12-25T19:15:36.902Z,4.87
2018-12-25T19:18:05.502Z,5.13
2018-12-25T19:20:33.941Z,4.70
2018-12-25T19:23:02.368Z,4.80
2018-12-25T19:25:30.839Z,5.50
2018-12-25T19:27:59.268Z,5.47
2018-12-25T19:30:27.773Z,5.67
2018-12-25T19:32:56.179Z,6.00
2018-12-25T19:35:24.631Z,6.20
2018-12-25T19:37:53.124Z,6.13
2018-12-25T19:40:21.552Z,6.90
2018-12-25T19:42:50.000Z,6.33
2018-12-25T19:45:19.733Z,6.10
2018-12-25T19:47:48.163Z,6.17
2018-12-25T19:50:16.674Z,6.13
2018-12-25T19:52:45.275Z,6.73
2018-12-25T19:55:13.988Z,5.60
2018-12-25T19:57:43.105Z,5.87
2018-12-25T20:00:14.085Z,5.73
2018-12-25T20:02:43.208Z,5.80
2018-12-25T20:05:20.360Z,5.97
2018-12-25T20:08:09.619Z,6.10
2018-12-25T20:10:52.979Z,6.47
2018-12-25T20:13:45.256Z,5.97
2018-12-25T20:16:34.654Z,6.50
2018-12-25T20:19:15.067Z,6.30
2018-12-25T20:21:49.221Z,7.13
2018-12-25T20:24:41.601Z,6.43
2018-12-25T20:27:22.088Z,6.70
2018-12-25T20:30:09.748Z,5.97
2018-12-25T20:32:44.115Z,6.67
2018-12-25T20:35:36.535Z,6.53
2018-12-25T20:38:08.023Z,7.23
2018-12-25T20:40:48.008Z,6.80
2018-12-25T20:43:24.669Z,7.20
2018-12-25T20:46:12.762Z,6.97
2018-12-25T20:49:01.777Z,7.70
2018-12-25T20:51:57.205Z,8.13
2018-12-25T20:54:40.922Z,8.87
2018-12-25T20:57:28.878Z,8.67
2018-12-25T21:00:06.514Z,8.53
2018-12-25T21:02:59.146Z,10.60
2018-12-25T21:05:50.158Z,9.67
2018-12-25T21:08:40.955Z,10.23
2018-12-25T21:11:41.038Z,10.20
2018-12-25T21:14:21.326Z,10.97
2018-12-25T21:17:20.887Z,11.10
2018-12-25T21:20:08.761Z,12.20
2018-12-25T21:23:13.955Z,12.63
2018-12-25T21:26:18.686Z,11.93
2018-12-25T21:28:47.587Z,13.67
2018-12-25T21:31:16.113Z,13.60
2018-12-25T21:33:44.676Z,13.73
2018-12-25T21:36:13.206Z,14.77
2018-12-25T21:38:41.657Z,15.40
2018-12-25T21:41:11.700Z,15.70
2018-12-25T21:43:40.588Z,16.07
2018-12-25T21:46:09.162Z,15.97
2018-12-25T21:48:38.113Z,17.00
2018-12-25T21:51:07.129Z,16.97
2018-12-25T21:53:35.683Z,17.70
2018-12-25T21:56:04.542Z,17.57
2018-12-25T21:58:33.066Z,17.40
2018-12-25T22:01:01.546Z,18.70
2018-12-25T22:03:30.371Z,18.87
2018-12-25T22:05:58.838Z,18.67
2018-12-25T22:08:27.292Z,19.73
2018-12-25T22:10:55.735Z,19.77
2018-12-25T22:13:24.164Z,19.17
2018-12-25T22:15:52.579Z,18.90
2018-12-25T22:18:21.126Z,18.47
2018-12-25T22:20:49.508Z,19.93
2018-12-25T22:23:17.964Z,20.17
2018-12-25T22:25:46.391Z,20.83
2018-12-25T22:28:14.876Z,19.90
2018-12-25T22:30:43.383Z,20.83
2018-12-25T22:33:11.742Z,21.23
2018-12-25T22:35:40.153Z,22.13
2018-12-25T22:38:08.678Z,20.47
2018-12-25T22:40:37.091Z,21.50
2018-12-25T22:43:05.522Z,22.53
2018-12-25T22:45:34.693Z,23.33
2018-12-25T22:48:03.083Z,22.27
2018-12-25T22:50:31.675Z,22.50
2018-12-25T22:53:00.145Z,22.60
2018-12-25T22:55:35.808Z,23.07
2018-12-25T22:58:00.331Z,23.27
2018-12-25T23:00:29.258Z,22.40
2018-12-25T23:02:57.688Z,25.57
2018-12-25T23:05:26.171Z,24.23
2018-12-25T23:07:54.591Z,24.30
2018-12-25T23:10:23.012Z,24.17
2018-12-25T23:12:51.457Z,23.83
2018-12-25T23:15:19.911Z,25.03
2018-12-25T23:17:48.352Z,24.20
2018-12-25T23:20:16.814Z,24.70
2018-12-25T23:22:45.243Z,25.13
2018-12-25T23:25:13.751Z,23.73
2018-12-25T23:27:42.156Z,24.20
2018-12-25T23:30:10.612Z,24.43
2018-12-25T23:32:39.041Z,24.23
2018-12-25T23:35:07.601Z,24.33
2018-12-25T23:37:36.862Z,24.53
2018-12-25T23:40:06.068Z,22.57
2018-12-25T23:42:36.903Z,23.27
2018-12-25T23:45:05.906Z,22.67
2018-12-25T23:47:34.319Z,22.43
2018-12-25T23:50:03.153Z,22.03
2018-12-25T23:52:31.585Z,22.07
2018-12-25T23:55:00.002Z,22.07
2018-12-25T23:57:28.424Z,20.50
